Ellsworth Air Force Base Rapid City US
ICAO: KRCA
IATA: RCA
Category: Medium
Scheduled Services: No

Elevation: 3276 ft
TransAlt. 18000 ft.

Airport Communications:
APP/DEP:119.5
ATIS:120.625
GND:121.8
PMSV METRO:37.577
COMD POST:32.1
PTD:37.22
TWR:126.05

KRCA Zoom In..

If you have problems with the map follow the link
https://www.worldairports.se/pages/airport.php?
ICAO=KRCA

Runways:

(A) RW 13 length 13497 ft width 300 ft
ILS 111.50 / hdg 127

(B) RW 31 length 13497 ft width 300 ft
ILS 110.30 / hdg 307

Location; KRCA
Day. 13 / Time. 20.56 Zulu
* Altimeter: 29.87
* Temperature: 02° c. 35.6°f.
* Wind from: 330° Speed 12 kn.
Dewpoint: -04° c.
Visibility: 10 Statute Miles.
Clouds: Few 9000 ft.

KRCA 132056Z AUTO 33012KT 10SM FEW090 02/M04 A2987 RMK AO2 SLP144 T00211036 53009


Wind From 330°
Speed 12 kn.

 
 
jpsmedia worldairports.se 2019   terms of use